Time;durP1;ratioP1;P1;durP2;ratioP2;P2;SDS_P1;SDS_P2;PMS_P1;PMS_P2;Temp;Humidity;BMP_temperature;BMP_pressure;BME280_temperature;BME280_humidity;BME280_pressure;Samples;Min_cycle;Max_cycle;Signal;HPM_P1;HPM_P2
2022/09/17 00:01:19;;;;;;;7.63;3.85;;;;;;;14.86;100.00;94156.16;5103995;27;20039;-70
2022/09/17 00:03:55;;;;;;;11.68;3.85;;;;;;;14.91;100.00;94140.38;5092169;27;20039;-70
2022/09/17 00:06:24;;;;;;;13.70;3.78;;;;;;;14.89;100.00;94145.91;5087935;27;20056;-71
2022/09/17 00:08:52;;;;;;;10.18;3.58;;;;;;;14.83;100.00;94151.44;5106996;27;20043;-70
2022/09/17 00:11:26;;;;;;;5.85;3.88;;;;;;;14.76;100.00;94156.22;5103886;27;20491;-70
2022/09/17 00:13:53;;;;;;;9.85;3.60;;;;;;;14.82;100.00;94155.13;5110421;27;20334;-70
2022/09/17 00:16:30;;;;;;;9.07;3.72;;;;;;;14.85;100.00;94150.09;5098854;27;20091;-71
2022/09/17 00:18:58;;;;;;;10.93;4.22;;;;;;;14.89;100.00;94160.84;5084545;27;20036;-71
2022/09/17 00:21:26;;;;;;;10.80;3.65;;;;;;;14.95;100.00;94148.50;5083014;27;20051;-71
2022/09/17 00:23:58;;;;;;;7.55;3.67;;;;;;;14.95;100.00;94144.03;5083781;28;20044;-71
2022/09/17 00:26:27;;;;;;;9.48;3.40;;;;;;;14.94;100.00;94144.28;5102117;27;20309;-70
2022/09/17 00:28:56;;;;;;;10.38;3.50;;;;;;;14.90;100.00;94136.19;5083127;27;20036;-71
2022/09/17 00:31:23;;;;;;;8.13;3.42;;;;;;;14.94;100.00;94152.94;5100692;27;20102;-71
2022/09/17 00:33:52;;;;;;;8.98;3.30;;;;;;;14.92;100.00;94139.31;5101367;27;20040;-71
2022/09/17 00:36:20;;;;;;;10.85;3.78;;;;;;;14.88;100.00;94143.56;5084587;28;20049;-71
2022/09/17 00:38:51;;;;;;;10.35;3.70;;;;;;;14.89;100.00;94134.63;5101781;27;20043;-71
2022/09/17 00:41:19;;;;;;;9.20;3.45;;;;;;;14.83;100.00;94141.75;5069774;28;20581;-71
2022/09/17 00:44:28;;;;;;;9.80;3.60;;;;;;;14.87;100.00;94134.09;5081631;28;20203;-71
2022/09/17 00:46:54;;;;;;;6.60;3.55;;;;;;;14.83;100.00;94135.72;5103410;27;20458;-71
2022/09/17 00:49:27;;;;;;;5.50;2.90;;;;;;;14.81;100.00;94132.59;5084978;28;20696;-71
2022/09/17 00:52:05;;;;;;;8.90;3.00;;;;;;;14.76;100.00;94140.50;5093653;27;20366;-71
2022/09/17 00:54:33;;;;;;;8.30;2.80;;;;;;;14.81;100.00;94153.56;5104451;27;20104;-71
2022/09/17 00:56:59;;;;;;;14.00;2.88;;;;;;;14.86;100.00;94135.19;5109336;27;20427;-71
2022/09/17 00:59:27;;;;;;;7.53;3.55;;;;;;;14.84;100.00;94127.59;5099987;27;20135;-71
2022/09/17 01:01:54;;;;;;;10.60;3.67;;;;;;;14.83;100.00;94146.22;5102805;27;20071;-71
2022/09/17 01:04:24;;;;;;;11.25;3.35;;;;;;;14.75;100.00;94152.03;5098470;27;20067;-71
2022/09/17 01:07:16;;;;;;;11.38;2.95;;;;;;;14.85;100.00;94157.19;5099526;27;20047;-71
2022/09/17 01:09:48;;;;;;;9.20;3.55;;;;;;;14.87;100.00;94152.47;5067746;27;20044;-71
2022/09/17 01:12:39;;;;;;;6.63;2.83;;;;;;;14.89;100.00;94147.72;5084974;27;20042;-71
2022/09/17 01:15:05;;;;;;;10.20;3.42;;;;;;;14.90;100.00;94136.19;5079874;27;20081;-71
2022/09/17 01:18:03;;;;;;;10.55;2.95;;;;;;;14.91;100.00;94132.53;5082817;28;20043;-71
2022/09/17 01:21:07;;;;;;;4.65;3.20;;;;;;;14.90;100.00;94120.47;5096509;27;20047;-71
2022/09/17 01:23:43;;;;;;;7.65;2.80;;;;;;;14.90;100.00;94130.94;5100178;27;20659;-71
2022/09/17 01:26:31;;;;;;;6.93;3.20;;;;;;;14.84;100.00;94129.44;5095968;28;20050;-70
2022/09/17 01:29:07;;;;;;;8.55;3.00;;;;;;;14.92;100.00;94123.59;5080728;28;20040;-70
2022/09/17 01:31:40;;;;;;;5.55;2.92;;;;;;;14.92;100.00;94123.59;5095690;28;20625;-71
2022/09/17 01:34:24;;;;;;;7.00;2.95;;;;;;;14.93;100.00;94114.69;5079397;28;20067;-71
2022/09/17 01:36:53;;;;;;;7.68;2.88;;;;;;;14.85;100.00;94123.91;5095780;27;20043;-71
2022/09/17 01:39:32;;;;;;;10.70;2.95;;;;;;;14.83;100.00;94126.00;5099591;27;20043;-70
2022/09/17 01:42:09;;;;;;;10.90;3.80;;;;;;;14.85;100.00;94112.63;5076887;28;20046;-70
2022/09/17 01:44:52;;;;;;;11.10;3.05;;;;;;;14.81;100.00;94109.00;5080380;28;20043;-71
2022/09/17 01:47:24;;;;;;;7.40;3.42;;;;;;;14.76;100.00;94122.16;5095638;27;20050;-71
2022/09/17 01:49:58;;;;;;;10.65;3.67;;;;;;;14.65;100.00;94118.81;5102467;27;20042;-70
2022/09/17 01:52:27;;;;;;;16.55;3.53;;;;;;;14.66;100.00;94121.16;5097101;28;20043;-70
2022/09/17 01:54:59;;;;;;;10.35;3.78;;;;;;;14.59;100.00;94125.94;5097601;28;20077;-71
2022/09/17 01:57:40;;;;;;;9.27;3.75;;;;;;;14.58;100.00;94108.63;5097279;27;20425;-70
2022/09/17 02:00:10;;;;;;;7.18;3.67;;;;;;;14.61;100.00;94105.47;5100258;27;20046;-70
2022/09/17 02:02:46;;;;;;;9.65;4.35;;;;;;;14.61;100.00;94076.66;5044868;28;20449;-70
2022/09/17 02:05:22;;;;;;;12.45;4.30;;;;;;;14.66;100.00;94100.19;5054625;28;20127;-70
2022/09/17 02:08:18;;;;;;;6.65;3.50;;;;;;;14.69;100.00;94112.78;5054824;28;20113;-71
2022/09/17 02:10:52;;;;;;;9.95;4.30;;;;;;;14.52;100.00;94107.09;5056175;28;20110;-71
2022/09/17 02:13:33;;;;;;;7.07;4.22;;;;;;;14.43;100.00;94100.88;5076581;28;20773;-70
2022/09/17 02:16:23;;;;;;;6.78;4.45;;;;;;;14.36;100.00;94079.44;5084836;28;20787;-71
2022/09/17 02:19:05;;;;;;;11.75;5.35;;;;;;;14.41;100.00;94061.84;5054558;28;20040;-71
2022/09/17 02:21:46;;;;;;;9.95;4.75;;;;;;;14.52;100.00;94058.09;5057143;28;20094;-70
2022/09/17 02:24:26;;;;;;;8.18;4.93;;;;;;;14.53;100.00;94048.38;5054212;28;20097;-71
2022/09/17 02:27:14;;;;;;;8.35;4.97;;;;;;;14.65;100.00;94051.44;5057037;28;20095;-71
2022/09/17 02:29:43;;;;;;;12.10;5.38;;;;;;;14.72;100.00;94025.72;5052802;28;20044;-71
2022/09/17 02:32:11;;;;;;;11.55;4.55;;;;;;;14.85;100.00;94002.53;5057613;28;20840;-71
2022/09/17 02:34:39;;;;;;;9.38;4.95;;;;;;;14.78;100.00;93991.59;5055079;28;20588;-71
2022/09/17 02:37:06;;;;;;;16.83;4.30;;;;;;;14.83;100.00;94021.16;5058048;28;20052;-70
2022/09/17 02:39:34;;;;;;;7.88;4.00;;;;;;;14.91;100.00;94006.69;5059760;28;20036;-71
2022/09/17 02:42:10;;;;;;;9.65;4.82;;;;;;;14.95;100.00;93997.19;5057025;28;20033;-71
2022/09/17 02:44:56;;;;;;;12.00;4.25;;;;;;;15.09;100.00;93981.59;5056318;28;20056;-71
2022/09/17 02:47:26;;;;;;;9.77;4.38;;;;;;;15.13;100.00;93968.69;5062455;28;20747;-72
2022/09/17 02:49:59;;;;;;;13.70;4.78;;;;;;;15.18;100.00;93971.22;5060440;28;20068;-71
2022/09/17 02:52:48;;;;;;;10.88;4.47;;;;;;;15.26;100.00;93981.13;5059616;28;20051;-72
2022/09/17 02:55:30;;;;;;;17.40;4.75;;;;;;;15.30;100.00;93989.97;5058384;28;20641;-71
2022/09/17 02:58:16;;;;;;;6.57;3.72;;;;;;;15.40;100.00;93982.00;5057359;28;20044;-70
2022/09/17 03:00:45;;;;;;;14.10;4.18;;;;;;;15.43;100.00;93965.69;5056973;28;20044;-71
2022/09/17 03:03:20;;;;;;;16.10;3.88;;;;;;;15.55;100.00;93972.38;5099697;27;20047;-70
2022/09/17 03:05:48;;;;;;;16.75;4.13;;;;;;;15.56;100.00;93976.56;5100303;27;20031;-71
2022/09/17 03:08:19;;;;;;;8.85;4.60;;;;;;;15.56;100.00;93974.72;5081001;27;20138;-70
2022/09/17 03:10:48;;;;;;;14.77;5.28;;;;;;;15.45;100.00;93958.31;5102499;27;20047;-72
2022/09/17 03:13:15;;;;;;;12.40;5.32;;;;;;;15.51;100.00;93961.66;5078462;28;20627;-72
2022/09/17 03:15:42;;;;;;;12.55;5.85;;;;;;;15.56;100.00;93966.06;5100337;27;20047;-71
2022/09/17 03:18:08;;;;;;;10.18;5.57;;;;;;;15.56;100.00;93969.47;5099612;27;20123;-72
2022/09/17 03:20:35;;;;;;;10.93;4.80;;;;;;;15.54;100.00;93961.09;5101251;27;20044;-71
2022/09/17 03:23:02;;;;;;;10.30;4.60;;;;;;;15.62;100.00;93985.94;5099997;27;20601;-72
2022/09/17 03:25:29;;;;;;;9.43;5.65;;;;;;;15.58;100.00;93974.44;5083494;28;20036;-73
2022/09/17 03:27:56;;;;;;;16.02;5.85;;;;;;;15.48;100.00;93963.00;5079687;28;20043;-72
2022/09/17 03:30:22;;;;;;;11.30;5.70;;;;;;;15.54;100.00;93970.78;5082558;28;20115;-72
2022/09/17 03:32:49;;;;;;;13.75;5.57;;;;;;;15.52;100.00;93951.94;5080754;27;20077;-72
2022/09/17 03:35:16;;;;;;;10.02;4.15;;;;;;;15.33;100.00;93960.56;5089168;27;20047;-72
2022/09/17 03:37:43;;;;;;;13.85;6.13;;;;;;;15.01;100.00;93980.34;5085030;28;20152;-72
2022/09/17 03:40:09;;;;;;;9.88;5.22;;;;;;;15.06;100.00;93946.19;5100127;27;20062;-71
2022/09/17 03:42:36;;;;;;;8.27;4.82;;;;;;;14.98;100.00;93967.00;5070600;27;20074;-72
2022/09/17 03:45:04;;;;;;;9.35;5.75;;;;;;;14.99;100.00;93971.19;5079903;27;20054;-71
2022/09/17 03:47:31;;;;;;;18.30;5.60;;;;;;;15.03;100.00;93975.59;5104117;27;20525;-72
2022/09/17 03:49:58;;;;;;;15.93;6.65;;;;;;;15.06;100.00;93992.63;5097631;27;20093;-71
2022/09/17 03:52:24;;;;;;;12.30;6.45;;;;;;;15.10;100.00;93957.69;5083906;27;20071;-71
2022/09/17 03:54:51;;;;;;;11.10;6.13;;;;;;;15.01;100.00;93948.88;5082952;28;20385;-71
2022/09/17 03:57:18;;;;;;;13.02;6.25;;;;;;;15.04;100.00;93969.28;5102212;27;20089;-70
2022/09/17 03:59:45;;;;;;;13.48;6.18;;;;;;;15.05;100.00;93949.09;5102876;27;20566;-70
2022/09/17 04:02:12;;;;;;;15.38;5.65;;;;;;;14.93;100.00;93931.16;5086952;28;20040;-70
2022/09/17 04:04:39;;;;;;;10.77;6.13;;;;;;;14.99;100.00;93934.50;5102694;27;20058;-70
2022/09/17 04:07:06;;;;;;;9.88;6.15;;;;;;;14.88;100.00;93934.59;5104447;28;20051;-71
2022/09/17 04:09:33;;;;;;;13.25;6.22;;;;;;;14.97;100.00;93953.13;5101001;27;20108;-70
2022/09/17 04:12:01;;;;;;;11.68;6.53;;;;;;;14.93;100.00;93944.25;5102201;27;20044;-69
2022/09/17 04:14:28;;;;;;;9.48;5.68;;;;;;;15.06;100.00;93956.69;5086435;28;20071;-70
2022/09/17 04:16:57;;;;;;;13.02;6.95;;;;;;;15.10;100.00;93968.16;5085736;28;20104;-69
2022/09/17 04:19:24;;;;;;;11.63;6.25;;;;;;;15.13;100.00;93984.44;5109794;27;20654;-70
2022/09/17 04:21:52;;;;;;;12.60;6.30;;;;;;;15.18;100.00;93990.41;5088459;27;20100;-70
2022/09/17 04:24:19;;;;;;;10.13;5.60;;;;;;;15.21;100.00;93996.91;5090331;27;20040;-70
2022/09/17 04:26:45;;;;;;;14.25;5.38;;;;;;;15.27;100.00;94014.16;5104137;27;20462;-69
2022/09/17 04:29:12;;;;;;;11.27;4.95;;;;;;;15.33;100.00;94018.28;5086703;28;20434;-70
2022/09/17 04:31:39;;;;;;;10.80;5.53;;;;;;;15.39;100.00;94032.91;5084261;28;20068;-71
2022/09/17 04:34:06;;;;;;;10.52;5.70;;;;;;;15.36;100.00;94043.97;5102167;27;20047;-71
2022/09/17 04:36:33;;;;;;;14.35;5.00;;;;;;;15.35;100.00;94052.13;5101325;27;20660;-71
2022/09/17 04:39:00;;;;;;;11.05;5.57;;;;;;;15.37;100.00;94056.00;5080776;28;20044;-72
2022/09/17 04:41:27;;;;;;;13.30;6.25;;;;;;;15.45;100.00;94067.75;5085049;28;20090;-71
2022/09/17 04:43:53;;;;;;;10.25;5.95;;;;;;;15.47;100.00;94073.50;5079999;27;20047;-72
2022/09/17 04:46:20;;;;;;;6.57;4.68;;;;;;;15.59;100.00;94083.59;5102412;27;20089;-71
2022/09/17 04:48:47;;;;;;;11.40;4.82;;;;;;;15.73;100.00;94097.59;5079612;27;20054;-71
2022/09/17 04:51:14;;;;;;;15.98;4.78;;;;;;;15.81;100.00;94091.78;5101184;27;20042;-72
2022/09/17 04:53:41;;;;;;;8.95;4.20;;;;;;;16.00;100.00;94088.38;5097819;27;20225;-72
2022/09/17 04:56:07;;;;;;;12.77;5.25;;;;;;;16.21;100.00;94105.44;5078657;28;20123;-71
2022/09/17 04:58:34;;;;;;;10.55;4.15;;;;;;;16.32;100.00;94105.31;5094881;27;20040;-71
2022/09/17 05:01:01;;;;;;;10.43;3.97;;;;;;;16.31;100.00;94109.75;5095645;27;20036;-72
2022/09/17 05:03:28;;;;;;;8.60;3.97;;;;;;;16.46;100.00;94127.19;5099341;27;20146;-72
2022/09/17 05:05:55;;;;;;;10.75;3.13;;;;;;;16.51;100.00;94139.44;5098053;27;20440;-72
2022/09/17 05:08:22;;;;;;;13.43;4.65;;;;;;;16.57;100.00;94133.84;5079926;27;20067;-72
2022/09/17 05:10:50;;;;;;;8.38;3.90;;;;;;;16.66;100.00;94138.47;5097600;27;20043;-72
2022/09/17 05:13:17;;;;;;;11.15;3.65;;;;;;;16.73;100.00;94146.78;5081791;28;20040;-72
2022/09/17 05:15:44;;;;;;;7.15;2.53;;;;;;;16.80;100.00;94155.09;5096133;27;20100;-72
2022/09/17 05:18:12;;;;;;;7.10;3.35;;;;;;;16.81;100.00;94159.25;5099663;27;20036;-71
2022/09/17 05:20:39;;;;;;;12.05;4.45;;;;;;;16.79;100.00;94156.91;5098343;27;20078;-71
2022/09/17 05:23:05;;;;;;;13.52;5.97;;;;;;;16.68;100.00;94145.00;5081656;28;20031;-72
2022/09/17 05:25:32;;;;;;;8.98;4.15;;;;;;;16.69;100.00;94140.50;5078994;28;20043;-71
2022/09/17 05:28:00;;;;;;;12.23;4.25;;;;;;;16.73;100.00;94120.50;5100882;27;20138;-73
2022/09/17 05:30:27;;;;;;;12.65;4.60;;;;;;;16.75;100.00;94102.56;5101579;27;20075;-72
2022/09/17 05:33:04;;;;;;;41.72;17.00;;;;;;;16.84;100.00;94095.63;5101917;27;20040;-72
2022/09/17 05:35:32;;;;;;;10.07;4.25;;;;;;;16.95;100.00;94102.25;5085599;27;20559;-72
2022/09/17 05:38:06;;;;;;;12.90;4.45;;;;;;;17.03;100.00;94098.19;5100934;27;20035;-72
2022/09/17 05:40:33;;;;;;;;;;;;;;;17.14;100.00;94104.06;5097665;27;20120;-72
2022/09/17 05:43:02;;;;;;;12.05;7.25;;;;;;;17.21;100.00;94114.97;5094434;28;19919;-79
2022/09/17 05:45:35;;;;;;;30.15;19.25;;;;;;;17.30;100.00;94118.50;5092890;27;20754;-76
2022/09/17 05:48:05;;;;;;;91.15;45.67;;;;;;;17.38;100.00;94117.84;5081874;28;20047;-74
2022/09/17 05:50:32;;;;;;;21.38;10.93;;;;;;;17.49;100.00;94120.31;5079445;28;20536;-74
2022/09/17 05:53:09;;;;;;;9.63;2.83;;;;;;;17.44;100.00;94096.69;5082105;27;20035;-75
2022/09/17 05:55:39;;;;;;;36.25;21.08;;;;;;;17.53;100.00;94089.69;5078979;28;20051;-74
2022/09/17 05:58:15;;;;;;;15.52;8.45;;;;;;;17.77;100.00;94116.59;5081162;28;20050;-69
2022/09/17 06:00:42;;;;;;;8.95;3.35;;;;;;;17.82;100.00;94133.38;5099137;27;21383;-69
2022/09/17 06:03:10;;;;;;;6.70;2.00;;;;;;;17.81;100.00;94101.00;5098023;27;20104;-69
2022/09/17 06:05:37;;;;;;;9.63;2.53;;;;;;;17.89;100.00;94120.63;5097434;28;20059;-69
2022/09/17 06:08:04;;;;;;;5.85;1.92;;;;;;;17.91;100.00;94110.56;5095812;27;20055;-69
2022/09/17 06:10:31;;;;;;;8.98;2.63;;;;;;;17.90;100.00;94103.75;5081778;28;20114;-70
2022/09/17 06:12:58;;;;;;;10.55;2.08;;;;;;;17.91;100.00;94115.84;5096410;28;20044;-69
2022/09/17 06:15:27;;;;;;;12.82;2.72;;;;;;;17.98;100.00;94116.22;5093394;28;20047;-69
2022/09/17 06:17:53;;;;;;;7.97;2.95;;;;;;;18.02;100.00;94124.31;5110510;27;20166;-68
2022/09/17 06:20:21;;;;;;;8.45;2.47;;;;;;;17.98;100.00;94112.81;5079978;28;20055;-69
2022/09/17 06:22:47;;;;;;;7.57;2.72;;;;;;;18.05;100.00;94132.41;5104791;28;20112;-69
2022/09/17 06:25:14;;;;;;;5.75;2.00;;;;;;;17.99;100.00;94144.13;5098682;28;20050;-69
2022/09/17 06:27:41;;;;;;;5.05;1.80;;;;;;;17.85;100.00;94148.59;5103274;27;20123;-69
2022/09/17 06:30:08;;;;;;;7.28;2.78;;;;;;;17.85;100.00;94145.97;5096868;28;20054;-69
2022/09/17 06:32:35;;;;;;;11.77;2.17;;;;;;;17.71;100.00;94148.59;5101197;28;20977;-69
2022/09/17 06:35:02;;;;;;;11.60;2.50;;;;;;;17.76;100.00;94161.66;5099825;28;20047;-69
2022/09/17 06:37:30;;;;;;;5.57;1.75;;;;;;;17.69;100.00;94177.84;5060883;28;20044;-69
2022/09/17 06:39:58;;;;;;;12.63;2.47;;;;;;;17.56;100.00;94183.88;5094624;28;20055;-69
2022/09/17 06:42:25;;;;;;;7.75;2.17;;;;;;;17.58;100.00;94182.50;5096583;28;20731;-69
2022/09/17 06:44:52;;;;;;;7.75;2.13;;;;;;;17.52;100.00;94188.16;5078847;28;20415;-69
2022/09/17 06:47:19;;;;;;;10.40;2.65;;;;;;;17.46;100.00;94187.47;5099423;28;20701;-69
2022/09/17 06:49:46;;;;;;;8.63;2.55;;;;;;;17.34;100.00;94164.25;5094063;28;20071;-69
2022/09/17 06:52:13;;;;;;;7.30;2.25;;;;;;;17.30;100.00;94160.63;5092439;28;20876;-69
2022/09/17 06:54:40;;;;;;;10.85;3.17;;;;;;;17.33;100.00;94154.78;5098752;28;21258;-69
2022/09/17 06:57:07;;;;;;;10.63;2.33;;;;;;;17.42;100.00;94154.13;5094633;27;20800;-69
2022/09/17 06:59:33;;;;;;;9.85;2.10;;;;;;;17.35;100.00;94131.56;5100247;28;20113;-69
2022/09/17 07:02:00;;;;;;;9.93;2.67;;;;;;;17.45;100.00;94148.25;5090551;28;20203;-69
2022/09/17 07:04:27;;;;;;;8.40;1.85;;;;;;;17.48;100.00;94160.84;5099144;28;20056;-69
2022/09/17 07:06:54;;;;;;;7.65;2.40;;;;;;;17.45;100.00;94140.34;5052689;28;20054;-68
2022/09/17 07:09:21;;;;;;;7.20;2.13;;;;;;;17.51;100.00;94144.47;5079150;28;20532;-69
2022/09/17 07:11:47;;;;;;;5.40;1.58;;;;;;;17.52;100.00;94146.81;5098775;28;20124;-69
2022/09/17 07:14:14;;;;;;;8.63;2.13;;;;;;;17.59;100.00;94143.78;5062319;28;20070;-70
2022/09/17 07:16:41;;;;;;;5.05;1.05;;;;;;;17.63;100.00;94131.63;5093734;28;20051;-69
2022/09/17 07:19:08;;;;;;;6.80;2.03;;;;;;;17.80;100.00;94125.00;5095975;28;20128;-68
2022/09/17 07:21:36;;;;;;;7.75;1.48;;;;;;;17.93;100.00;94111.06;5098154;28;20910;-69
2022/09/17 07:24:03;;;;;;;9.70;1.30;;;;;;;18.14;100.00;94106.94;5099653;27;20047;-70
2022/09/17 07:26:30;;;;;;;6.10;1.33;;;;;;;18.39;100.00;94110.09;5087013;27;20047;-69
2022/09/17 07:28:57;;;;;;;3.95;1.02;;;;;;;18.64;100.00;94094.78;5098884;27;20131;-71
2022/09/17 07:31:23;;;;;;;3.63;1.15;;;;;;;18.93;100.00;94101.53;5086794;28;20032;-70
2022/09/17 07:33:50;;;;;;;3.20;0.60;;;;;;;19.25;100.00;94098.63;5099121;27;20036;-70
2022/09/17 07:36:17;;;;;;;5.60;0.73;;;;;;;19.54;100.00;94107.91;5104335;27;20124;-72
2022/09/17 07:38:44;;;;;;;5.82;1.20;;;;;;;19.72;100.00;94094.78;5087622;27;20074;-68
2022/09/17 07:41:14;;;;;;;3.50;0.70;;;;;;;19.98;100.00;94093.00;5097419;27;20162;-76
2022/09/17 07:43:42;;;;;;;1.40;0.43;;;;;;;20.02;100.00;94088.66;5084086;27;20046;-72
2022/09/17 07:46:17;;;;;;;3.10;0.73;;;;;;;20.08;100.00;94101.72;5104115;27;20405;-71
2022/09/17 07:48:45;;;;;;;1.73;0.32;;;;;;;20.10;100.00;94083.69;5098764;27;20174;-72
2022/09/17 07:51:20;;;;;;;5.35;1.30;;;;;;;20.35;100.00;94080.28;5096359;27;20047;-71
2022/09/17 07:53:57;;;;;;;2.15;0.55;;;;;;;20.58;100.00;94082.78;5101366;27;20104;-73
2022/09/17 07:56:26;;;;;;;2.13;0.47;;;;;;;20.69;100.00;94081.41;5078015;28;20827;-72
2022/09/17 07:58:54;;;;;;;3.60;0.63;;;;;;;20.88;100.00;94075.78;5083200;28;20545;-72
2022/09/17 08:01:21;;;;;;;2.80;0.50;;;;;;;21.00;100.00;94077.78;5076615;28;20043;-72
2022/09/17 08:03:53;;;;;;;0.60;0.20;;;;;;;21.20;100.00;94082.41;5081885;28;20043;-72
2022/09/17 08:06:26;;;;;;;5.47;0.88;;;;;;;21.40;100.00;94069.56;5081858;27;20631;-72
2022/09/17 08:08:55;;;;;;;2.53;0.38;;;;;;;21.68;100.00;94069.16;5079916;28;20040;-71
2022/09/17 08:11:25;;;;;;;2.35;0.50;;;;;;;21.76;98.72;94081.59;5082593;28;20043;-72
2022/09/17 08:14:14;;;;;;;1.60;0.43;;;;;;;22.01;100.00;94073.84;5085136;27;20124;-72
2022/09/17 08:16:41;;;;;;;1.77;0.60;;;;;;;22.10;100.00;94074.56;5081262;28;20734;-72
2022/09/17 08:19:10;;;;;;;6.28;1.00;;;;;;;22.08;95.85;94060.84;5102982;27;20428;-72
2022/09/17 08:21:37;;;;;;;2.28;0.55;;;;;;;22.24;99.40;94048.56;5084611;27;20088;-71
2022/09/17 08:24:04;;;;;;;3.95;1.33;;;;;;;22.53;98.33;94044.31;5107484;27;20031;-72
2022/09/17 08:26:31;;;;;;;2.40;0.57;;;;;;;22.55;94.85;94046.66;5109645;27;20047;-72
2022/09/17 08:28:58;;;;;;;1.58;0.60;;;;;;;22.50;87.19;94050.25;5107097;27;20552;-71
2022/09/17 08:31:27;;;;;;;2.13;0.30;;;;;;;22.48;84.13;94052.47;5097826;27;20043;-68
2022/09/17 08:33:54;;;;;;;5.28;1.15;;;;;;;22.53;85.33;94012.47;5097603;27;20062;-71
2022/09/17 08:36:25;;;;;;;4.43;1.25;;;;;;;22.86;82.14;94043.53;5081515;28;20043;-71
2022/09/17 08:38:56;;;;;;;2.08;0.50;;;;;;;22.89;81.55;94045.53;5101782;27;20036;-72
2022/09/17 08:41:38;;;;;;;2.63;0.95;;;;;;;23.06;81.93;94050.69;5101070;27;20091;-69
2022/09/17 08:44:40;;;;;;;4.57;0.43;;;;;;;23.06;80.38;94050.69;5097765;27;20039;-68
2022/09/17 08:47:29;;;;;;;2.22;0.73;;;;;;;23.25;79.51;94052.06;5097195;27;20035;-69
2022/09/17 08:50:03;;;;;;;2.33;0.55;;;;;;;23.17;78.99;94044.97;5095803;27;20356;-68
2022/09/17 08:52:33;;;;;;;2.47;1.10;;;;;;;23.06;78.17;94040.06;5099839;27;20068;-68
2022/09/17 08:55:06;;;;;;;4.70;0.60;;;;;;;23.12;78.24;94042.50;5101484;27;20191;-68
2022/09/17 08:57:49;;;;;;;2.92;0.82;;;;;;;23.18;80.57;94046.53;5103959;27;20039;-67
2022/09/17 09:00:19;;;;;;;3.10;0.60;;;;;;;23.35;79.61;94035.69;5102985;27;20076;-69
2022/09/17 09:02:55;;;;;;;4.28;0.40;;;;;;;23.38;80.80;94045.66;5104787;27;20052;-70
2022/09/17 09:05:29;;;;;;;4.18;0.95;;;;;;;22.94;79.84;94053.31;5100087;27;20067;-68
2022/09/17 09:07:59;;;;;;;;;;;;;;;22.88;81.60;94051.94;5104497;27;20217;-68
2022/09/17 09:10:32;;;;;;;2.10;0.60;;;;;;;22.71;82.86;94040.41;5098833;27;19924;-68
2022/09/17 09:13:00;;;;;;;3.03;1.20;;;;;;;22.45;84.79;94047.81;5105010;27;20035;-69
2022/09/17 09:15:32;;;;;;;2.83;1.15;;;;;;;22.24;86.02;94064.47;5096432;27;20509;-69
2022/09/17 09:18:10;;;;;;;2.30;0.50;;;;;;;21.82;87.32;94069.72;5101481;27;20789;-68
2022/09/17 09:21:07;;;;;;;2.65;1.08;;;;;;;21.67;90.86;94068.38;5076636;28;20031;-68
2022/09/17 09:23:51;;;;;;;3.40;0.90;;;;;;;21.40;95.19;94074.88;5091437;27;20052;-76
2022/09/17 09:26:52;;;;;;;6.00;1.10;;;;;;;21.20;95.38;94082.41;5102164;27;20036;-74
2022/09/17 09:29:55;;;;;;;6.45;0.80;;;;;;;20.94;99.63;94085.13;5096798;27;20122;-73
2022/09/17 09:32:47;;;;;;;2.85;0.80;;;;;;;20.68;100.00;94092.31;5100946;27;20051;-73
2022/09/17 09:35:23;;;;;;;3.55;1.05;;;;;;;20.39;100.00;94112.97;5101676;27;20117;-71
2022/09/17 09:38:08;;;;;;;4.88;0.90;;;;;;;20.24;100.00;94116.06;5100255;27;20040;-72
2022/09/17 09:40:43;;;;;;;4.68;1.13;;;;;;;20.20;100.00;94130.97;5095955;27;20035;-72
2022/09/17 09:43:21;;;;;;;4.07;1.50;;;;;;;20.14;100.00;94129.56;5059868;28;21543;-72
2022/09/17 09:46:31;;;;;;;3.60;1.05;;;;;;;20.11;100.00;94148.69;5094810;28;20837;-72
2022/09/17 09:49:40;;;;;;;4.03;1.42;;;;;;;19.85;100.00;94146.75;5095319;28;20883;-73
2022/09/17 09:52:25;;;;;;;8.88;1.55;;;;;;;19.92;100.00;94152.38;5043802;28;20035;-72
2022/09/17 09:55:05;;;;;;;11.18;4.55;;;;;;;19.87;100.00;94144.56;5078566;28;20791;-72
2022/09/17 09:58:12;;;;;;;13.45;7.07;;;;;;;19.92;100.00;94154.25;5076296;28;20764;-70
2022/09/17 10:00:43;;;;;;;26.40;4.57;;;;;;;19.90;100.00;94154.53;5084766;27;20071;-70
2022/09/17 10:03:22;;;;;;;8.90;3.78;;;;;;;19.92;100.00;94167.44;5071449;28;20509;-70
2022/09/17 10:06:01;;;;;;;19.27;3.33;;;;;;;19.88;100.00;94172.56;5076496;28;20170;-71
2022/09/17 10:08:31;;;;;;;10.02;4.85;;;;;;;19.82;100.00;94173.75;5106156;27;20681;-70
2022/09/17 10:11:02;;;;;;;13.18;6.55;;;;;;;19.84;100.00;94176.88;5076886;28;20044;-72
2022/09/17 10:13:32;;;;;;;15.20;6.35;;;;;;;19.80;100.00;94149.53;5075617;28;20092;-70
2022/09/17 10:16:19;;;;;;;18.27;6.80;;;;;;;19.88;100.00;94134.78;5074996;28;20044;-70
2022/09/17 10:18:48;;;;;;;19.63;7.40;;;;;;;19.85;100.00;94110.53;5073234;28;20051;-70
2022/09/17 10:21:30;;;;;;;15.75;6.22;;;;;;;19.84;100.00;94079.13;5075738;28;20040;-71
2022/09/17 10:24:03;;;;;;;16.05;4.22;;;;;;;19.86;100.00;94087.50;5080226;28;20131;-71
2022/09/17 10:26:34;;;;;;;14.18;7.50;;;;;;;19.77;100.00;94076.94;5076790;28;20043;-71
2022/09/17 10:29:19;;;;;;;16.13;3.42;;;;;;;19.77;100.00;94065.56;5076213;28;20108;-68
2022/09/17 10:31:50;;;;;;;11.00;3.75;;;;;;;19.61;100.00;94052.78;5071276;28;20056;-68
2022/09/17 10:34:25;;;;;;;12.60;4.32;;;;;;;19.54;100.00;94026.03;5072298;28;20044;-67
2022/09/17 10:36:54;;;;;;;15.90;4.70;;;;;;;19.41;100.00;94043.56;5076956;28;20043;-69
2022/09/17 10:39:33;;;;;;;8.32;3.35;;;;;;;19.45;100.00;94033.16;5076452;28;20044;-71
2022/09/17 10:42:14;;;;;;;9.15;2.40;;;;;;;19.36;100.00;94029.72;5076337;28;20098;-71
2022/09/17 10:44:59;;;;;;;7.50;2.38;;;;;;;19.33;100.00;94041.66;5060352;28;20047;-71
2022/09/17 10:47:36;;;;;;;6.68;2.28;;;;;;;19.36;100.00;94048.19;5075423;28;21505;-77
2022/09/17 10:50:16;;;;;;;8.10;1.30;;;;;;;19.39;100.00;94050.22;5074894;28;20047;-76
2022/09/17 10:52:49;;;;;;;7.47;1.50;;;;;;;19.42;100.00;94044.31;5082705;28;20036;-76
2022/09/17 10:55:29;;;;;;;8.48;2.47;;;;;;;19.21;100.00;93980.72;5082553;28;20039;-76
2022/09/17 10:58:06;;;;;;;6.00;2.08;;;;;;;19.39;100.00;94007.97;5075360;28;20051;-73
2022/09/17 11:00:39;;;;;;;8.73;2.70;;;;;;;19.50;100.00;94003.97;5070517;28;20210;-68
2022/09/17 11:03:43;;;;;;;3.25;2.20;;;;;;;19.54;100.00;93999.63;5102091;27;20051;-67
2022/09/17 11:06:44;;;;;;;5.57;1.90;;;;;;;19.57;100.00;93987.66;5101559;27;21567;-68
2022/09/17 11:09:22;;;;;;;3.28;1.35;;;;;;;19.60;100.00;93987.81;5069191;27;21040;-68
2022/09/17 11:12:15;;;;;;;6.25;1.85;;;;;;;19.68;100.00;93995.00;5100060;27;21812;-68
2022/09/17 11:15:16;;;;;;;9.02;2.53;;;;;;;19.76;100.00;94001.41;5060425;27;20487;-67
2022/09/17 11:18:13;;;;;;;5.85;2.58;;;;;;;19.86;100.00;94006.41;5098881;27;20043;-67
2022/09/17 11:21:13;;;;;;;7.78;2.75;;;;;;;19.98;100.00;93997.84;5097277;27;20040;-68
2022/09/17 11:24:01;;;;;;;6.28;1.98;;;;;;;20.17;100.00;93988.84;5097765;27;20531;-67
2022/09/17 11:26:55;;;;;;;3.60;1.60;;;;;;;20.40;100.00;93986.78;5099377;27;20512;-67
2022/09/17 11:29:48;;;;;;;4.85;2.13;;;;;;;20.57;100.00;93993.94;5076837;28;20047;-68
2022/09/17 11:32:48;;;;;;;2.47;1.33;;;;;;;20.90;100.00;93998.72;5096567;27;20099;-69
2022/09/17 11:35:21;;;;;;;4.85;1.40;;;;;;;21.23;100.00;93982.25;5100232;28;20618;-69
2022/09/17 11:37:57;;;;;;;5.03;1.30;;;;;;;21.39;100.00;93994.63;5099240;27;20046;-68
2022/09/17 11:40:42;;;;;;;4.57;1.42;;;;;;;21.56;100.00;93977.91;5097428;27;20126;-68
2022/09/17 11:43:32;;;;;;;2.83;1.20;;;;;;;21.71;100.00;93983.72;5100486;28;20135;-68
2022/09/17 11:46:03;;;;;;;4.65;0.95;;;;;;;21.81;100.00;93991.31;5098816;27;20039;-68
2022/09/17 11:48:48;;;;;;;3.17;1.35;;;;;;;21.92;100.00;94000.44;5099350;27;20104;-68
2022/09/17 11:51:20;;;;;;;7.95;2.03;;;;;;;21.93;100.00;93991.38;5096338;27;20043;-69
2022/09/17 11:53:54;;;;;;;3.60;0.73;;;;;;;21.85;100.00;93996.75;5098318;27;20036;-70